createdAt,value
2019-03-16T00:00:15.215Z,0.40
2019-03-16T00:02:42.461Z,0.50
2019-03-16T00:05:09.512Z,0.47
2019-03-16T00:07:36.599Z,0.40
2019-03-16T00:10:03.674Z,0.60
2019-03-16T00:12:30.720Z,0.40
2019-03-16T00:14:57.904Z,0.50
2019-03-16T00:17:24.987Z,0.40
2019-03-16T00:19:52.104Z,0.50
2019-03-16T00:22:19.186Z,0.50
2019-03-16T00:24:46.293Z,0.40
2019-03-16T00:27:13.334Z,0.50
2019-03-16T00:29:40.649Z,0.50
2019-03-16T00:32:13.310Z,0.50
2019-03-16T00:34:37.728Z,0.60
2019-03-16T00:39:53.595Z,0.50
2019-03-16T00:42:19.978Z,0.50
2019-03-16T00:47:38.596Z,0.30
2019-03-16T00:50:05.771Z,0.50
2019-03-16T00:52:33.432Z,0.70
2019-03-16T00:55:00.730Z,0.40
2019-03-16T00:57:28.039Z,0.40
2019-03-16T00:59:55.122Z,0.50
2019-03-16T01:02:27.314Z,0.50
2019-03-16T01:05:18.882Z,0.40
2019-03-16T01:07:46.237Z,0.40
2019-03-16T01:10:13.373Z,0.40
2019-03-16T01:12:40.638Z,0.50
2019-03-16T01:15:19.106Z,0.50
2019-03-16T01:17:46.442Z,0.50
2019-03-16T01:20:14.375Z,0.50
2019-03-16T01:22:42.038Z,0.40
2019-03-16T01:25:09.291Z,0.43
2019-03-16T01:27:36.430Z,0.60
2019-03-16T01:30:04.330Z,0.40
2019-03-16T01:32:40.476Z,0.50
2019-03-16T01:35:02.401Z,0.40
2019-03-16T01:37:29.454Z,0.40
2019-03-16T01:39:56.677Z,0.50
2019-03-16T01:42:26.694Z,0.40
2019-03-16T01:44:54.274Z,0.40
2019-03-16T01:47:21.537Z,0.40
2019-03-16T01:49:48.779Z,0.40
2019-03-16T01:52:16.062Z,0.60
2019-03-16T01:54:43.694Z,0.50
2019-03-16T01:57:12.580Z,0.50
2019-03-16T01:59:39.836Z,0.40
2019-03-16T02:02:07.338Z,0.40
2019-03-16T02:04:34.405Z,0.50
2019-03-16T02:07:01.548Z,0.40
2019-03-16T02:09:28.642Z,0.40
2019-03-16T02:11:55.691Z,0.80
2019-03-16T02:14:22.942Z,0.40
2019-03-16T02:16:50.328Z,0.40
2019-03-16T02:19:17.549Z,0.40
2019-03-16T02:21:46.725Z,0.40
2019-03-16T02:24:14.327Z,0.40
2019-03-16T02:26:41.363Z,0.40
2019-03-16T02:29:08.563Z,0.40
2019-03-16T02:31:35.758Z,0.40
2019-03-16T02:34:03.313Z,0.40
2019-03-16T02:36:33.814Z,0.40
2019-03-16T02:47:50.617Z,0.33
2019-03-16T02:50:17.736Z,0.40
2019-03-16T02:52:44.787Z,0.40
2019-03-16T02:55:11.835Z,0.40
2019-03-16T02:57:39.212Z,0.40
2019-03-16T03:00:06.479Z,0.40
2019-03-16T03:02:33.623Z,0.30
2019-03-16T03:05:00.961Z,0.40
2019-03-16T03:07:28.056Z,0.40
2019-03-16T03:09:55.209Z,0.40
2019-03-16T03:12:22.452Z,0.40
2019-03-16T03:14:49.528Z,0.30
2019-03-16T03:17:16.849Z,0.40
2019-03-16T03:19:44.130Z,0.40
2019-03-16T03:22:17.095Z,0.40
2019-03-16T03:24:44.853Z,0.40
2019-03-16T03:27:12.086Z,0.40
2019-03-16T03:29:39.355Z,0.40
2019-03-16T03:32:06.665Z,0.40
2019-03-16T03:34:33.946Z,0.40
2019-03-16T03:37:02.871Z,0.40
2019-03-16T03:39:30.399Z,0.47
2019-03-16T03:41:58.177Z,0.40
2019-03-16T03:47:19.291Z,0.40
2019-03-16T03:49:48.263Z,0.40
2019-03-16T03:52:15.706Z,0.40
2019-03-16T03:54:42.992Z,0.40
2019-03-16T03:57:10.119Z,0.40
2019-03-16T03:59:37.393Z,0.40
2019-03-16T04:02:04.562Z,0.50
2019-03-16T04:04:32.127Z,0.40
2019-03-16T04:06:59.515Z,0.30
2019-03-16T04:09:26.644Z,0.50
2019-03-16T04:11:54.072Z,0.40
2019-03-16T04:14:21.203Z,0.40
2019-03-16T04:16:48.266Z,0.40
2019-03-16T04:19:15.931Z,0.50
2019-03-16T04:21:45.428Z,0.60
2019-03-16T04:24:12.961Z,0.40
2019-03-16T04:26:40.140Z,0.40
2019-03-16T04:29:07.374Z,0.40
2019-03-16T04:31:34.599Z,0.40
2019-03-16T04:34:01.780Z,0.40
2019-03-16T04:36:29.129Z,0.50
2019-03-16T04:38:59.354Z,0.30
2019-03-16T04:41:32.152Z,0.40
2019-03-16T04:43:59.322Z,0.40
2019-03-16T04:46:26.597Z,0.40
2019-03-16T04:48:53.704Z,0.40
2019-03-16T04:51:20.764Z,0.50
2019-03-16T04:53:48.208Z,0.40
2019-03-16T04:56:17.085Z,0.47
2019-03-16T04:58:44.381Z,0.50
2019-03-16T05:01:13.251Z,0.47
2019-03-16T05:03:40.476Z,0.40
2019-03-16T05:06:07.637Z,0.40
2019-03-16T05:08:34.780Z,0.63
2019-03-16T05:11:20.380Z,0.47
2019-03-16T05:13:49.753Z,0.87
2019-03-16T05:16:17.136Z,0.43
2019-03-16T05:18:47.142Z,0.50
2019-03-16T05:21:14.235Z,0.40
2019-03-16T05:23:41.438Z,0.40
2019-03-16T05:26:08.639Z,0.40
2019-03-16T05:28:35.827Z,0.47
2019-03-16T05:31:03.000Z,0.40
2019-03-16T05:33:30.078Z,0.37
2019-03-16T05:36:03.811Z,0.47
2019-03-16T05:38:28.659Z,0.40
2019-03-16T05:40:55.973Z,0.40
2019-03-16T05:43:23.468Z,0.40
2019-03-16T05:45:50.619Z,0.50
2019-03-16T05:48:17.849Z,0.50
2019-03-16T05:50:45.037Z,0.40
2019-03-16T05:53:12.082Z,0.37
2019-03-16T05:55:39.526Z,0.50
2019-03-16T05:58:06.899Z,0.53
2019-03-16T06:00:37.661Z,0.50
2019-03-16T06:03:04.795Z,0.53
2019-03-16T06:05:31.920Z,0.47
2019-03-16T06:07:59.093Z,0.40
2019-03-16T06:10:40.231Z,0.40
2019-03-16T06:15:47.606Z,0.50
2019-03-16T06:18:14.698Z,0.40
2019-03-16T06:23:37.059Z,0.40
2019-03-16T06:26:04.311Z,0.53
2019-03-16T06:31:29.617Z,0.50
2019-03-16T06:33:56.684Z,0.50
2019-03-16T06:36:23.919Z,0.60
2019-03-16T06:38:51.089Z,0.57
2019-03-16T06:41:18.239Z,0.70
2019-03-16T06:43:45.486Z,0.50
2019-03-16T06:46:12.589Z,0.40
2019-03-16T06:48:39.673Z,1.57
2019-03-16T06:51:06.812Z,0.77
2019-03-16T06:53:33.885Z,0.90
2019-03-16T06:58:50.672Z,1.17
2019-03-16T07:01:17.814Z,1.10
2019-03-16T07:03:44.871Z,0.67
2019-03-16T07:06:12.043Z,0.87
2019-03-16T07:08:40.957Z,0.73
2019-03-16T07:11:08.226Z,1.37
2019-03-16T07:13:35.511Z,1.13
2019-03-16T07:16:02.738Z,1.10
2019-03-16T07:18:32.728Z,1.10
2019-03-16T07:26:24.079Z,1.00
2019-03-16T07:28:50.769Z,0.87
2019-03-16T07:36:49.449Z,1.30
2019-03-16T07:39:15.674Z,0.80
2019-03-16T07:41:46.091Z,1.17
2019-03-16T07:44:18.070Z,0.93
2019-03-16T07:46:45.308Z,0.90
2019-03-16T07:49:12.432Z,1.03
2019-03-16T07:51:39.715Z,1.10
2019-03-16T07:54:06.841Z,0.90
2019-03-16T07:56:33.984Z,1.30
2019-03-16T07:59:01.200Z,0.90
2019-03-16T08:01:28.409Z,1.00
2019-03-16T08:06:36.850Z,1.00
2019-03-16T08:09:04.099Z,1.20
2019-03-16T08:11:31.257Z,2.00
2019-03-16T08:13:59.734Z,0.83
2019-03-16T08:16:26.950Z,0.90
2019-03-16T08:18:54.059Z,1.10
2019-03-16T08:21:21.385Z,1.00
2019-03-16T08:23:48.837Z,0.90
2019-03-16T08:26:17.430Z,1.10
2019-03-16T08:28:44.807Z,1.40
2019-03-16T08:31:12.031Z,0.70
2019-03-16T08:33:39.400Z,1.80
2019-03-16T08:36:06.627Z,0.90
2019-03-16T08:52:43.491Z,1.00
2019-03-16T08:55:10.614Z,1.20
2019-03-16T08:57:37.818Z,1.00
2019-03-16T09:00:05.067Z,1.10
2019-03-16T09:02:32.547Z,0.80
2019-03-16T09:04:59.709Z,1.10
2019-03-16T09:07:26.932Z,0.70
2019-03-16T09:09:54.167Z,0.90
2019-03-16T09:12:22.663Z,1.10
2019-03-16T09:14:49.779Z,0.80
2019-03-16T09:17:28.633Z,1.40
2019-03-16T09:19:58.890Z,1.03
2019-03-16T09:22:26.178Z,1.03
2019-03-16T09:24:53.248Z,0.87
2019-03-16T09:27:30.548Z,1.00
2019-03-16T09:29:49.404Z,1.43
2019-03-16T09:32:17.024Z,1.90
2019-03-16T09:34:44.249Z,4.40
2019-03-16T09:37:11.326Z,6.40
2019-03-16T09:39:38.408Z,2.37
2019-03-16T09:42:05.615Z,3.37
2019-03-16T09:44:32.814Z,2.70
2019-03-16T09:47:00.021Z,2.57
2019-03-16T09:49:29.015Z,2.47
2019-03-16T09:51:56.101Z,2.80
2019-03-16T09:54:23.561Z,2.13
2019-03-16T09:57:00.691Z,3.20
2019-03-16T09:59:19.917Z,2.20
2019-03-16T10:01:47.364Z,1.73
2019-03-16T10:04:14.656Z,1.80
2019-03-16T10:06:41.763Z,2.30
2019-03-16T10:09:09.005Z,2.17
2019-03-16T10:11:36.252Z,1.70
2019-03-16T10:14:03.333Z,2.20
2019-03-16T10:16:39.792Z,1.77
2019-03-16T10:30:19.342Z,1.90
2019-03-16T11:07:33.142Z,1.77
2019-03-16T11:10:00.545Z,1.70
2019-03-16T11:12:27.900Z,1.30
2019-03-16T11:14:55.253Z,1.53
2019-03-16T11:17:23.628Z,1.70
2019-03-16T11:19:50.769Z,1.70
2019-03-16T11:22:17.820Z,1.37
2019-03-16T11:24:44.953Z,1.27
2019-03-16T11:27:17.151Z,1.60
2019-03-16T11:29:44.196Z,1.30
2019-03-16T11:32:11.636Z,1.67
2019-03-16T11:34:40.483Z,1.87
2019-03-16T11:37:07.578Z,1.23
2019-03-16T11:39:34.674Z,1.27
2019-03-16T11:42:01.984Z,1.13
2019-03-16T11:44:29.110Z,1.43
2019-03-16T11:46:56.246Z,1.53
2019-03-16T11:49:26.300Z,1.33
2019-03-16T11:51:53.727Z,1.10
2019-03-16T11:54:20.926Z,1.30
2019-03-16T11:56:48.130Z,1.20
2019-03-16T11:59:21.429Z,1.00
2019-03-16T12:02:04.616Z,1.20
2019-03-16T12:04:22.166Z,0.80
2019-03-16T12:06:49.596Z,1.20
2019-03-16T12:09:17.169Z,1.20
2019-03-16T12:11:47.896Z,1.23
2019-03-16T12:14:14.278Z,1.00
2019-03-16T12:16:41.454Z,1.30
2019-03-16T12:19:10.478Z,1.30
2019-03-16T12:21:37.852Z,1.40
2019-03-16T12:24:05.101Z,0.80
2019-03-16T12:26:37.187Z,1.20
2019-03-16T12:29:03.038Z,1.10
2019-03-16T12:34:06.877Z,1.10
2019-03-16T12:36:35.667Z,1.10
2019-03-16T12:39:02.883Z,0.90
2019-03-16T12:41:30.132Z,1.20
2019-03-16T12:43:57.308Z,0.93
2019-03-16T12:46:24.609Z,0.70
2019-03-16T12:48:51.856Z,0.83
2019-03-16T12:51:20.187Z,1.10
2019-03-16T12:53:49.101Z,1.10
2019-03-16T12:56:18.752Z,1.00
2019-03-16T12:59:10.875Z,1.17
2019-03-16T13:01:40.088Z,1.30
2019-03-16T13:04:07.161Z,0.77
2019-03-16T13:06:43.666Z,1.07
2019-03-16T13:09:18.618Z,1.13
2019-03-16T13:11:47.613Z,0.70
2019-03-16T13:14:14.895Z,0.73
2019-03-16T13:16:42.246Z,0.73
2019-03-16T13:19:12.635Z,1.00
2019-03-16T13:21:40.467Z,1.20
2019-03-16T13:24:17.348Z,1.20
2019-03-16T13:29:32.870Z,1.20
2019-03-16T13:32:02.794Z,1.07
2019-03-16T13:34:31.855Z,1.20
2019-03-16T13:37:01.020Z,1.10
2019-03-16T13:39:28.142Z,0.90
2019-03-16T13:41:55.546Z,0.90
2019-03-16T13:44:25.929Z,0.90
2019-03-16T13:46:54.917Z,1.53
2019-03-16T13:49:23.948Z,1.07
2019-03-16T13:54:59.625Z,0.83
2019-03-16T13:57:27.198Z,1.00
2019-03-16T13:59:58.014Z,0.80
2019-03-16T14:14:16.847Z,1.23
2019-03-16T14:16:47.738Z,0.90
2019-03-16T14:22:19.689Z,0.80
2019-03-16T14:24:50.098Z,1.00
2019-03-16T14:27:17.304Z,1.27
2019-03-16T14:29:55.571Z,0.70
2019-03-16T14:35:11.482Z,0.97
2019-03-16T14:37:41.162Z,0.87
2019-03-16T14:40:13.280Z,0.80
2019-03-16T14:42:43.631Z,0.80
2019-03-16T14:45:10.820Z,0.80
2019-03-16T14:50:25.180Z,1.07
2019-03-16T14:52:55.330Z,0.80
2019-03-16T14:55:22.509Z,0.60
2019-03-16T14:57:51.402Z,0.80
2019-03-16T15:00:18.624Z,0.60
2019-03-16T15:02:46.518Z,0.70
2019-03-16T15:05:15.131Z,0.80
2019-03-16T15:07:55.613Z,0.80
2019-03-16T15:10:35.155Z,0.90
2019-03-16T15:19:09.642Z,0.77
2019-03-16T15:21:36.876Z,0.67
2019-03-16T15:24:04.298Z,1.20
2019-03-16T15:26:31.502Z,0.67
2019-03-16T15:28:58.613Z,0.73
2019-03-16T15:31:25.777Z,0.90
2019-03-16T15:33:52.913Z,0.70
2019-03-16T15:36:20.342Z,0.70
2019-03-16T15:38:47.493Z,0.80
2019-03-16T15:41:14.578Z,0.90
2019-03-16T15:43:46.810Z,0.80
2019-03-16T15:46:17.185Z,0.80
2019-03-16T15:48:44.536Z,1.13
2019-03-16T15:51:11.925Z,1.00
2019-03-16T15:53:38.974Z,0.70
2019-03-16T15:56:06.580Z,1.07
2019-03-16T15:58:33.829Z,0.77
2019-03-16T16:01:05.491Z,0.80
2019-03-16T16:03:32.656Z,0.63
2019-03-16T16:05:59.932Z,0.77
2019-03-16T16:08:29.846Z,0.80
2019-03-16T16:11:04.741Z,0.80
2019-03-16T16:13:31.889Z,0.80
2019-03-16T16:15:59.153Z,0.67
2019-03-16T16:18:26.303Z,0.87
2019-03-16T16:20:53.384Z,0.90
2019-03-16T16:23:20.758Z,0.90
2019-03-16T16:25:48.102Z,0.80
2019-03-16T16:28:15.288Z,1.07
2019-03-16T16:30:42.561Z,0.60
2019-03-16T16:33:09.678Z,0.77
2019-03-16T16:35:37.181Z,0.87
2019-03-16T16:38:04.304Z,0.73
2019-03-16T16:40:32.503Z,0.80
2019-03-16T16:42:59.727Z,0.80
2019-03-16T16:45:28.694Z,0.90
2019-03-16T16:47:55.819Z,0.80
2019-03-16T16:50:23.076Z,0.70
2019-03-16T16:53:08.411Z,0.87
2019-03-16T16:55:35.520Z,1.07
2019-03-16T16:58:02.633Z,0.83
2019-03-16T17:03:19.655Z,0.90
2019-03-16T17:05:52.814Z,0.73
2019-03-16T17:08:20.233Z,1.03
2019-03-16T17:13:42.922Z,1.00
2019-03-16T17:16:11.789Z,0.87
2019-03-16T17:18:39.141Z,0.90
2019-03-16T17:21:06.390Z,0.90
2019-03-16T17:23:42.351Z,0.70
2019-03-16T17:26:09.902Z,0.63
2019-03-16T17:28:37.281Z,1.00
2019-03-16T17:31:04.919Z,1.03
2019-03-16T17:33:34.622Z,1.17
2019-03-16T17:36:12.591Z,1.00
2019-03-16T17:39:09.701Z,0.70
2019-03-16T17:41:25.886Z,1.10
2019-03-16T17:46:50.196Z,0.80
2019-03-16T17:49:17.425Z,0.63
2019-03-16T17:51:45.803Z,0.90
2019-03-16T17:54:12.946Z,0.80
2019-03-16T17:56:40.130Z,0.90
2019-03-16T17:59:09.104Z,0.90
2019-03-16T18:01:36.443Z,0.83
2019-03-16T18:04:03.720Z,0.50
2019-03-16T18:06:30.967Z,0.80
2019-03-16T18:08:58.170Z,1.10
2019-03-16T18:11:27.209Z,0.70
2019-03-16T18:13:54.209Z,0.87
2019-03-16T18:16:21.309Z,0.80
2019-03-16T18:18:48.527Z,0.80
2019-03-16T18:24:04.927Z,1.10
2019-03-16T18:26:35.303Z,1.53
2019-03-16T18:29:02.767Z,0.90
2019-03-16T18:31:31.607Z,1.20
2019-03-16T18:33:59.078Z,0.90
2019-03-16T18:36:28.968Z,0.80
2019-03-16T18:38:56.186Z,0.90
2019-03-16T18:41:23.533Z,1.10
2019-03-16T18:43:52.809Z,1.17
2019-03-16T18:46:21.815Z,0.70
2019-03-16T18:48:48.949Z,0.70
2019-03-16T18:51:16.104Z,0.73
2019-03-16T18:53:45.489Z,1.33
2019-03-16T19:00:31.622Z,0.80
2019-03-16T19:01:34.322Z,1.07
2019-03-16T19:04:01.678Z,1.03
2019-03-16T19:06:28.831Z,1.00
2019-03-16T19:08:56.083Z,0.60
2019-03-16T19:11:23.412Z,0.90
2019-03-16T19:13:51.895Z,0.67
2019-03-16T19:16:28.068Z,0.70
2019-03-16T19:18:55.219Z,1.00
2019-03-16T19:21:22.376Z,0.87
2019-03-16T19:23:49.968Z,0.70
2019-03-16T19:29:21.305Z,0.80
2019-03-16T19:32:00.750Z,0.93
2019-03-16T19:34:29.717Z,0.80
2019-03-16T19:36:57.222Z,0.80
2019-03-16T19:39:26.221Z,0.83
2019-03-16T19:41:55.183Z,0.80
2019-03-16T19:44:22.297Z,0.90
2019-03-16T19:46:49.514Z,1.10
2019-03-16T19:49:16.616Z,0.90
2019-03-16T19:51:44.088Z,1.10
2019-03-16T19:54:13.294Z,0.90
2019-03-16T19:56:40.847Z,1.10
2019-03-16T19:59:11.144Z,1.23
2019-03-16T20:01:49.073Z,0.77
2019-03-16T20:04:35.026Z,1.03
2019-03-16T20:06:52.895Z,1.40
2019-03-16T20:12:12.491Z,0.90
2019-03-16T20:14:39.640Z,1.23
2019-03-16T20:17:09.063Z,1.50
2019-03-16T20:19:36.399Z,1.00
2019-03-16T20:22:08.876Z,1.20
2019-03-16T20:24:44.708Z,1.30
2019-03-16T20:27:15.476Z,1.00
2019-03-16T20:29:48.347Z,1.63
2019-03-16T20:32:28.288Z,1.30
2019-03-16T20:35:02.301Z,1.20
2019-03-16T20:37:38.527Z,0.90
2019-03-16T20:40:06.233Z,1.00
2019-03-16T20:42:33.564Z,0.80
2019-03-16T20:45:00.714Z,1.40
2019-03-16T20:47:31.101Z,1.30
2019-03-16T20:49:57.351Z,1.07
2019-03-16T20:52:24.368Z,1.43
2019-03-16T20:54:51.432Z,1.70
2019-03-16T20:57:18.672Z,1.30
2019-03-16T20:59:45.775Z,1.40
2019-03-16T21:02:12.812Z,1.33
2019-03-16T21:04:40.541Z,1.40
2019-03-16T21:07:07.598Z,1.30
2019-03-16T21:09:34.676Z,1.07
2019-03-16T21:12:01.726Z,1.23
2019-03-16T21:14:29.037Z,1.47
2019-03-16T21:17:08.997Z,1.30
2019-03-16T21:19:44.327Z,1.40
2019-03-16T21:22:18.913Z,1.40
2019-03-16T21:24:57.245Z,1.67
2019-03-16T21:27:30.660Z,1.20
2019-03-16T21:30:03.646Z,1.13
2019-03-16T21:32:44.146Z,1.10
2019-03-16T21:35:20.551Z,1.20
2019-03-16T21:37:49.508Z,1.33
2019-03-16T21:40:22.653Z,1.10
2019-03-16T21:42:49.502Z,1.10
2019-03-16T21:45:30.046Z,1.30
2019-03-16T21:48:02.083Z,1.17
2019-03-16T21:50:31.748Z,1.20
2019-03-16T21:53:07.014Z,1.10
2019-03-16T21:55:32.964Z,1.10
2019-03-16T21:58:00.057Z,1.50
2019-03-16T22:00:27.196Z,1.43
2019-03-16T22:02:54.254Z,1.10
2019-03-16T22:05:21.529Z,1.17
2019-03-16T22:07:48.568Z,1.00
2019-03-16T22:10:15.636Z,1.37
2019-03-16T22:12:42.923Z,1.50
2019-03-16T22:15:10.123Z,1.30
2019-03-16T22:17:37.242Z,1.40
2019-03-16T22:20:04.278Z,1.37
2019-03-16T22:22:31.327Z,1.10
2019-03-16T22:24:58.520Z,1.40
2019-03-16T22:27:25.675Z,1.30
2019-03-16T22:29:53.136Z,1.20
2019-03-16T22:32:20.961Z,1.60
2019-03-16T22:34:48.181Z,1.10
2019-03-16T22:37:15.228Z,1.40
2019-03-16T22:39:42.336Z,1.40
2019-03-16T22:42:09.669Z,1.30
2019-03-16T22:44:36.751Z,1.30
2019-03-16T22:47:04.002Z,1.50
2019-03-16T22:49:31.040Z,1.57
2019-03-16T22:51:58.232Z,1.77
2019-03-16T22:54:28.196Z,1.40
2019-03-16T22:56:55.247Z,0.90
2019-03-16T22:59:22.689Z,1.43
2019-03-16T23:01:49.739Z,1.27
2019-03-16T23:04:18.269Z,1.60
2019-03-16T23:06:45.309Z,1.13
2019-03-16T23:09:12.424Z,1.20
2019-03-16T23:11:39.525Z,1.33
2019-03-16T23:14:06.663Z,1.30
2019-03-16T23:16:33.901Z,1.00
2019-03-16T23:19:00.972Z,1.33
2019-03-16T23:21:28.038Z,1.30
2019-03-16T23:23:55.255Z,1.20
2019-03-16T23:26:22.701Z,1.00
2019-03-16T23:28:49.764Z,1.40
2019-03-16T23:31:16.845Z,1.10
2019-03-16T23:33:44.058Z,1.17
2019-03-16T23:36:14.099Z,1.30
2019-03-16T23:38:41.240Z,0.90
2019-03-16T23:41:08.316Z,1.07
2019-03-16T23:43:35.539Z,1.30
2019-03-16T23:46:02.780Z,1.20
2019-03-16T23:54:00.615Z,1.47
2019-03-16T23:56:28.645Z,1.20
2019-03-16T23:59:03.211Z,1.30
